Terminal Aerodrome Forecast
Issued by NWS Portland, OR

Home | Current Version | Previous Version | Text Only | Print | Product List | Glossary On
Versions: 1 2 3 4 5 6 7 8 9 10 11 12 13 14 15 16 17 18 19 20 21 22 23 24 25 26 27 28 29
000
FTUS46 KPQR 241424 AAA
TAFEUG
TAF AMD
KEUG 241424Z 2414/2512 18007KT P6SM VCSH BKN028 BKN040
      TEMPO 2414/2417 SCT028
     FM241700 28006KT P6SM SCT050 BKN070
     FM242100 34006KT P6SM SCT070=

USA.gov is the U.S. government's official web portal to all federal, state and local government web resources and services.